DEKT2: Red River, Dekalb, TX

Data processed at Sat Mar 10 2018 23:30


All information presented herein is the property of the government of the United States of America and may be revised or deleted at any time without prior notice.
Dissemination of this information without the expressed written consent of the Public Affairs Office, Tulsa District U.S. Army Corps of Engineers is strictly prohibited.
These data are gathered electronically and, as presented, have not undergone any form of quality control. These data are not guaranteed to be valid or correct.
Go to home page.
Go to station list.

Upstream stations:

Downstream station:
Previous Day
Next Day
Current Day
    
SHEF ID:       DEKT2     Red River near De Kalb, TX
STATION TYPE:  

               PRECIP     STAGE  STAGE(2)  RIV-FLOW  BAT-LOAD
                   in        ft        ft       cfs      volt
              Ccp-Rev   Ccp-Rev   Ccp-Rev   Ccp-Rev   Ccp-Rev
(US/Central)
03/08 00:00      0.00     18.81     19.39     31630     12.65
03/08 01:00      0.00     18.78     19.35     31504     12.65
03/08 02:00      0.00     18.77     19.37     31462     12.65
03/08 03:00      0.00     18.74     19.35     31336     12.57
03/08 04:00      0.00     18.73     19.32     31294     12.57
03/08 05:00      0.00     18.72     19.31     31252     12.49
03/08 06:00      0.00     18.70     19.28     31168     12.49
03/08 07:00      0.00     18.68     19.26     31084     12.41
03/08 08:00      0.00     18.68     19.27     31084     12.57
03/08 09:00      0.00     18.66     19.28     31001     13.29
03/08 10:00      0.00     18.64     19.23     30917     13.68
03/08 11:00      0.00     18.64     19.22     30917     13.60
03/08 12:00      0.00     18.60     19.21     30751     13.53
03/08 13:00      0.00     18.58     19.16     30668     13.44
03/08 14:00      0.00     18.55     19.16     30543     13.44
03/08 15:00      0.00     18.54     19.14     30502     13.53
03/08 16:00      0.00     18.51     19.14     30377     13.53
03/08 17:00      0.00     18.50     19.12     30336     13.53
03/08 18:00      0.00     18.49     19.10     30295     13.21
03/08 19:00      0.00     18.47     19.09     30212     13.05
03/08 20:00      0.00     18.45     19.07     30130     12.81
03/08 21:00      0.00     18.45     19.05     30130     12.73
03/08 22:00      0.00     18.44     19.03     30089     12.73
03/08 23:00      0.00     18.43     19.02     30048     12.65